createdAt,value
2023-01-31T00:00:15.657Z,94.31
2023-01-31T00:02:44.319Z,94.14
2023-01-31T00:05:12.547Z,94.75
2023-01-31T00:07:39.978Z,94.04
2023-01-31T00:10:09.221Z,94.26
2023-01-31T00:12:36.121Z,93.86
2023-01-31T00:15:04.346Z,94.38
2023-01-31T00:17:31.344Z,94.27
2023-01-31T00:19:58.348Z,94.04
2023-01-31T00:22:26.914Z,94.15
2023-01-31T00:24:53.659Z,94.20
2023-01-31T00:27:20.384Z,94.64
2023-01-31T00:29:47.139Z,95.01
2023-01-31T00:32:14.051Z,95.37
2023-01-31T00:34:40.874Z,95.06
2023-01-31T00:37:08.955Z,95.04
2023-01-31T00:39:37.127Z,95.28
2023-01-31T00:42:04.229Z,96.00
2023-01-31T00:44:32.108Z,95.04
2023-01-31T00:46:59.003Z,95.27
2023-01-31T00:49:25.826Z,95.78
2023-01-31T00:51:54.171Z,95.58
2023-01-31T00:54:20.926Z,95.40
2023-01-31T00:56:49.264Z,95.05
2023-01-31T00:59:16.473Z,95.90
2023-01-31T01:01:43.569Z,95.31
2023-01-31T01:04:10.621Z,95.55
2023-01-31T01:06:39.197Z,94.95
2023-01-31T01:09:06.341Z,94.85
2023-01-31T01:11:34.518Z,94.95
2023-01-31T01:14:03.170Z,95.86
2023-01-31T01:16:33.373Z,95.19
2023-01-31T01:19:01.777Z,95.45
2023-01-31T01:21:31.153Z,95.56
2023-01-31T01:24:00.268Z,95.87
2023-01-31T01:26:29.633Z,96.46
2023-01-31T01:28:58.253Z,96.27
2023-01-31T01:31:28.736Z,95.92
2023-01-31T01:33:56.679Z,96.23
2023-01-31T01:36:23.935Z,96.78
2023-01-31T01:38:50.862Z,96.12
2023-01-31T01:41:19.445Z,96.30
2023-01-31T01:43:48.528Z,96.21
2023-01-31T01:46:17.965Z,96.58
2023-01-31T01:48:51.233Z,96.33
2023-01-31T01:51:20.467Z,96.67
2023-01-31T01:53:51.528Z,96.23
2023-01-31T01:56:21.829Z,96.74
2023-01-31T01:58:56.509Z,96.54
2023-01-31T02:01:25.386Z,96.29
2023-01-31T02:03:54.135Z,96.85
2023-01-31T02:06:21.790Z,96.39
2023-01-31T02:08:50.333Z,96.42
2023-01-31T02:11:22.815Z,96.76
2023-01-31T02:13:51.305Z,96.29
2023-01-31T02:16:18.423Z,96.25
2023-01-31T02:18:46.239Z,97.16
2023-01-31T02:21:56.509Z,97.69
2023-01-31T02:24:59.708Z,97.64
2023-01-31T02:27:56.291Z,97.85
2023-01-31T02:30:51.909Z,97.83
2023-01-31T02:33:28.919Z,98.38
2023-01-31T02:36:08.147Z,98.88
2023-01-31T02:38:52.853Z,98.69
2023-01-31T02:41:27.347Z,98.88
2023-01-31T02:43:59.167Z,99.18
2023-01-31T02:46:34.989Z,98.73
2023-01-31T02:49:11.633Z,98.55
2023-01-31T02:51:45.879Z,98.53
2023-01-31T02:54:17.971Z,98.80
2023-01-31T02:56:48.958Z,98.98
2023-01-31T02:59:20.883Z,98.64
2023-01-31T03:01:55.357Z,98.75
2023-01-31T03:04:23.913Z,98.82
2023-01-31T03:07:04.464Z,99.35
2023-01-31T03:09:50.008Z,99.69
2023-01-31T03:12:50.331Z,99.74
2023-01-31T03:15:38.010Z,99.35
2023-01-31T03:18:11.287Z,99.44
2023-01-31T03:20:44.771Z,98.78
2023-01-31T03:23:16.320Z,99.32
2023-01-31T03:25:45.663Z,99.38
2023-01-31T03:28:16.369Z,99.29
2023-01-31T03:30:51.261Z,99.47
2023-01-31T03:33:23.008Z,100.00
2023-01-31T03:35:56.637Z,99.85
2023-01-31T03:38:28.537Z,99.56
2023-01-31T03:40:59.079Z,100.00
2023-01-31T03:43:31.646Z,100.00
2023-01-31T03:46:06.569Z,100.00
2023-01-31T03:48:41.374Z,100.00
2023-01-31T03:51:16.215Z,100.00
2023-01-31T03:53:48.693Z,100.00
2023-01-31T03:56:18.655Z,100.00
2023-01-31T03:58:50.548Z,100.00
2023-01-31T04:01:18.911Z,100.00
2023-01-31T04:03:51.512Z,100.00
2023-01-31T04:06:19.873Z,100.00
2023-01-31T04:08:47.288Z,100.00
2023-01-31T04:11:17.661Z,100.00
2023-01-31T04:13:45.150Z,100.00
2023-01-31T04:16:12.439Z,100.00
2023-01-31T04:18:39.326Z,100.00
2023-01-31T04:21:06.106Z,100.00
2023-01-31T04:23:34.339Z,100.00
2023-01-31T04:26:01.686Z,100.00
2023-01-31T04:28:28.422Z,100.00
2023-01-31T04:30:56.603Z,100.00
2023-01-31T04:33:23.739Z,100.00
2023-01-31T04:35:51.665Z,100.00
2023-01-31T04:38:18.487Z,100.00
2023-01-31T04:40:47.065Z,100.00
2023-01-31T04:43:13.864Z,100.00
2023-01-31T04:45:40.836Z,100.00
2023-01-31T04:48:07.858Z,100.00
2023-01-31T04:50:34.819Z,100.00
2023-01-31T04:53:02.076Z,100.00
2023-01-31T04:55:28.900Z,100.00
2023-01-31T04:57:58.198Z,100.00
2023-01-31T05:00:25.185Z,100.00
2023-01-31T05:02:52.093Z,100.00
2023-01-31T05:05:19.607Z,100.00
2023-01-31T05:07:46.608Z,100.00
2023-01-31T05:10:13.858Z,100.00
2023-01-31T05:12:40.663Z,100.00
2023-01-31T05:15:10.622Z,100.00
2023-01-31T05:17:37.853Z,100.00
2023-01-31T05:20:09.594Z,100.00
2023-01-31T05:22:37.276Z,100.00
2023-01-31T05:25:05.164Z,100.00
2023-01-31T05:27:31.863Z,100.00
2023-01-31T05:29:58.744Z,100.00
2023-01-31T05:32:27.058Z,100.00
2023-01-31T05:34:56.743Z,100.00
2023-01-31T05:37:23.542Z,100.00
2023-01-31T05:39:50.822Z,100.00
2023-01-31T05:42:17.528Z,100.00
2023-01-31T05:44:44.273Z,100.00
2023-01-31T05:47:11.202Z,100.00
2023-01-31T05:49:39.867Z,100.00
2023-01-31T05:52:06.635Z,100.00
2023-01-31T05:54:33.551Z,100.00
2023-01-31T05:57:00.476Z,100.00
2023-01-31T05:59:27.220Z,100.00
2023-01-31T06:01:54.117Z,100.00
2023-01-31T06:04:21.093Z,100.00
2023-01-31T06:06:49.458Z,100.00
2023-01-31T06:09:16.329Z,100.00
2023-01-31T06:11:43.089Z,100.00
2023-01-31T06:14:09.919Z,100.00
2023-01-31T06:16:36.863Z,100.00
2023-01-31T06:19:04.335Z,100.00
2023-01-31T06:21:32.023Z,100.00
2023-01-31T06:24:01.353Z,100.00
2023-01-31T06:26:28.123Z,100.00
2023-01-31T06:28:55.432Z,100.00
2023-01-31T06:31:22.464Z,100.00
2023-01-31T06:33:49.338Z,100.00
2023-01-31T06:36:18.939Z,100.00
2023-01-31T06:38:49.818Z,100.00
2023-01-31T06:41:18.099Z,100.00
2023-01-31T06:43:44.882Z,100.00
2023-01-31T06:46:11.963Z,100.00
2023-01-31T06:48:38.863Z,100.00
2023-01-31T06:51:06.305Z,100.00
2023-01-31T06:53:33.168Z,100.00
2023-01-31T06:56:00.983Z,100.00
2023-01-31T06:58:29.261Z,100.00
2023-01-31T07:00:56.253Z,100.00
2023-01-31T07:03:25.652Z,100.00
2023-01-31T07:05:52.899Z,100.00
2023-01-31T07:08:20.101Z,100.00
2023-01-31T07:10:47.986Z,100.00
2023-01-31T07:13:15.592Z,100.00
2023-01-31T07:15:44.038Z,100.00
2023-01-31T07:18:11.986Z,100.00
2023-01-31T07:20:39.782Z,100.00
2023-01-31T07:23:06.865Z,100.00
2023-01-31T07:25:33.715Z,100.00
2023-01-31T07:28:02.456Z,100.00
2023-01-31T07:30:30.765Z,100.00
2023-01-31T07:33:00.501Z,100.00
2023-01-31T07:35:28.392Z,100.00
2023-01-31T07:37:56.777Z,100.00
2023-01-31T07:40:23.577Z,100.00
2023-01-31T07:42:50.392Z,100.00
2023-01-31T07:45:23.414Z,100.00
2023-01-31T07:47:50.468Z,100.00
2023-01-31T07:50:19.494Z,100.00
2023-01-31T07:52:46.352Z,100.00
2023-01-31T07:55:13.036Z,100.00
2023-01-31T07:57:41.163Z,100.00
2023-01-31T08:00:10.921Z,100.00
2023-01-31T08:02:37.584Z,100.00
2023-01-31T08:05:05.182Z,100.00
2023-01-31T08:07:33.366Z,100.00
2023-01-31T08:10:00.125Z,100.00
2023-01-31T08:12:26.916Z,100.00
2023-01-31T08:14:53.648Z,100.00
2023-01-31T08:17:20.332Z,100.00
2023-01-31T08:19:47.393Z,100.00
2023-01-31T08:22:14.140Z,100.00
2023-01-31T08:24:42.246Z,100.00
2023-01-31T08:27:09.091Z,100.00
2023-01-31T08:29:36.132Z,100.00
2023-01-31T08:32:02.928Z,100.00
2023-01-31T08:34:30.353Z,100.00
2023-01-31T08:36:59.533Z,100.00
2023-01-31T08:39:26.383Z,100.00
2023-01-31T08:41:54.609Z,100.00
2023-01-31T08:44:21.419Z,100.00
2023-01-31T08:46:48.254Z,100.00
2023-01-31T08:49:15.215Z,100.00
2023-01-31T08:51:43.800Z,100.00
2023-01-31T08:54:10.879Z,100.00
2023-01-31T08:56:37.829Z,100.00
2023-01-31T08:59:06.363Z,100.00
2023-01-31T09:01:33.706Z,100.00
2023-01-31T09:04:00.831Z,100.00
2023-01-31T09:06:44.817Z,100.00
2023-01-31T09:09:11.869Z,100.00
2023-01-31T09:11:38.549Z,100.00
2023-01-31T09:14:07.032Z,100.00
2023-01-31T09:16:34.375Z,100.00
2023-01-31T09:19:01.131Z,100.00
2023-01-31T09:21:27.998Z,100.00
2023-01-31T09:23:56.603Z,100.00
2023-01-31T09:26:23.700Z,100.00
2023-01-31T09:28:50.467Z,100.00
2023-01-31T09:31:20.629Z,100.00
2023-01-31T09:33:48.415Z,100.00
2023-01-31T09:36:17.890Z,100.00
2023-01-31T09:38:44.936Z,100.00
2023-01-31T09:41:19.235Z,100.00
2023-01-31T09:43:53.048Z,100.00
2023-01-31T09:46:26.244Z,100.00
2023-01-31T09:48:57.344Z,100.00
2023-01-31T09:51:24.154Z,100.00
2023-01-31T09:53:51.244Z,100.00
2023-01-31T09:56:30.840Z,100.00
2023-01-31T09:59:07.094Z,100.00
2023-01-31T10:01:44.740Z,100.00
2023-01-31T10:04:29.448Z,100.00
2023-01-31T10:07:01.832Z,100.00
2023-01-31T10:09:34.000Z,100.00
2023-01-31T10:12:10.494Z,100.00
2023-01-31T10:14:43.102Z,100.00
2023-01-31T10:17:17.082Z,100.00
2023-01-31T10:19:48.444Z,100.00
2023-01-31T10:22:18.206Z,100.00
2023-01-31T10:24:49.687Z,100.00
2023-01-31T10:27:24.842Z,100.00
2023-01-31T10:29:55.651Z,100.00
2023-01-31T10:32:33.674Z,100.00
2023-01-31T10:35:10.070Z,100.00
2023-01-31T10:37:44.413Z,100.00
2023-01-31T10:40:16.232Z,100.00
2023-01-31T10:42:49.227Z,100.00
2023-01-31T10:45:18.268Z,100.00
2023-01-31T10:47:50.848Z,100.00
2023-01-31T10:50:20.313Z,100.00
2023-01-31T10:53:01.822Z,100.00
2023-01-31T10:55:55.439Z,100.00
2023-01-31T10:58:23.882Z,100.00
2023-01-31T11:00:51.134Z,100.00
2023-01-31T11:03:19.996Z,100.00
2023-01-31T11:05:50.438Z,100.00
2023-01-31T11:08:33.375Z,100.00
2023-01-31T11:11:06.963Z,100.00
2023-01-31T11:13:33.703Z,100.00
2023-01-31T11:16:03.200Z,100.00
2023-01-31T11:18:35.184Z,100.00
2023-01-31T11:21:03.836Z,100.00
2023-01-31T11:23:35.096Z,100.00
2023-01-31T11:26:03.109Z,100.00
2023-01-31T11:28:36.338Z,100.00
2023-01-31T11:31:06.532Z,100.00
2023-01-31T11:33:43.007Z,100.00
2023-01-31T11:36:12.038Z,100.00
2023-01-31T11:38:38.947Z,100.00
2023-01-31T11:41:42.312Z,100.00
2023-01-31T11:44:15.465Z,100.00
2023-01-31T11:46:47.242Z,100.00
2023-01-31T11:49:22.816Z,100.00
2023-01-31T11:51:51.116Z,100.00
2023-01-31T11:54:20.314Z,100.00
2023-01-31T11:56:48.060Z,100.00
2023-01-31T11:59:21.625Z,100.00
2023-01-31T12:01:50.610Z,100.00
2023-01-31T12:04:23.901Z,100.00
2023-01-31T12:06:59.984Z,100.00
2023-01-31T12:09:30.929Z,100.00
2023-01-31T12:11:59.149Z,100.00
2023-01-31T12:14:38.039Z,100.00
2023-01-31T12:17:06.140Z,100.00
2023-01-31T12:19:46.456Z,100.00
2023-01-31T12:22:18.696Z,100.00
2023-01-31T12:24:57.462Z,100.00
2023-01-31T12:27:39.171Z,100.00
2023-01-31T12:30:26.452Z,100.00
2023-01-31T12:33:05.379Z,100.00
2023-01-31T12:35:56.719Z,100.00
2023-01-31T12:38:37.917Z,100.00
2023-01-31T12:41:18.574Z,100.00
2023-01-31T12:44:00.432Z,100.00
2023-01-31T12:46:40.686Z,100.00
2023-01-31T12:49:44.900Z,100.00
2023-01-31T12:52:34.774Z,100.00
2023-01-31T12:55:15.770Z,100.00
2023-01-31T12:57:56.285Z,100.00
2023-01-31T13:00:32.652Z,100.00
2023-01-31T13:03:39.114Z,100.00
2023-01-31T13:06:11.309Z,100.00
2023-01-31T13:08:42.396Z,100.00
2023-01-31T13:11:17.651Z,100.00
2023-01-31T13:13:49.577Z,100.00
2023-01-31T13:16:21.410Z,100.00
2023-01-31T13:18:51.066Z,100.00
2023-01-31T13:21:22.723Z,100.00
2023-01-31T13:23:55.948Z,100.00
2023-01-31T13:26:27.905Z,100.00
2023-01-31T13:29:00.714Z,100.00
2023-01-31T13:31:29.110Z,100.00
2023-01-31T13:34:05.413Z,100.00
2023-01-31T13:36:35.787Z,100.00
2023-01-31T13:39:12.697Z,100.00
2023-01-31T13:41:41.933Z,100.00
2023-01-31T13:44:13.746Z,100.00
2023-01-31T13:46:47.856Z,99.72
2023-01-31T13:49:23.329Z,99.37
2023-01-31T13:51:55.726Z,98.92
2023-01-31T13:54:35.660Z,99.01
2023-01-31T13:57:04.069Z,98.71
2023-01-31T13:59:33.999Z,98.48
2023-01-31T14:02:04.141Z,98.97
2023-01-31T14:04:39.860Z,98.63
2023-01-31T14:07:23.209Z,98.60
2023-01-31T14:10:27.375Z,98.47
2023-01-31T14:13:25.347Z,98.58
2023-01-31T14:15:53.861Z,98.48
2023-01-31T14:18:38.061Z,98.30
2023-01-31T14:21:43.673Z,98.33
2023-01-31T14:24:19.952Z,98.40
2023-01-31T14:26:55.192Z,97.88
2023-01-31T14:29:24.421Z,97.92
2023-01-31T14:31:54.503Z,97.63
2023-01-31T14:34:25.092Z,97.46
2023-01-31T14:37:06.141Z,96.44
2023-01-31T14:40:00.465Z,96.18
2023-01-31T14:43:00.174Z,95.72
2023-01-31T14:45:58.839Z,95.24
2023-01-31T14:49:00.298Z,95.28
2023-01-31T14:51:37.840Z,95.19
2023-01-31T14:54:33.354Z,94.83
2023-01-31T14:57:17.060Z,94.30
2023-01-31T14:59:52.856Z,94.69
2023-01-31T15:03:01.837Z,93.21
2023-01-31T15:05:44.348Z,93.86
2023-01-31T15:08:48.764Z,93.02
2023-01-31T15:11:42.434Z,93.44
2023-01-31T15:14:35.205Z,92.82
2023-01-31T15:17:20.096Z,93.33
2023-01-31T15:19:58.537Z,91.52
2023-01-31T15:22:25.906Z,92.53
2023-01-31T15:24:55.991Z,92.12
2023-01-31T15:27:27.721Z,91.13
2023-01-31T15:30:02.600Z,90.14
2023-01-31T15:32:38.264Z,90.25
2023-01-31T15:35:14.629Z,90.54
2023-01-31T15:37:42.485Z,90.13
2023-01-31T15:40:18.970Z,90.15
2023-01-31T15:42:46.248Z,90.10
2023-01-31T15:45:21.279Z,89.67
2023-01-31T15:47:58.456Z,89.08
2023-01-31T15:50:29.671Z,88.66
2023-01-31T15:52:56.964Z,89.10
2023-01-31T15:55:24.469Z,89.04
2023-01-31T15:57:54.490Z,89.40
2023-01-31T16:00:25.320Z,89.17
2023-01-31T16:02:52.702Z,89.47
2023-01-31T16:05:22.036Z,88.82
2023-01-31T16:07:50.688Z,89.20
2023-01-31T16:10:19.188Z,88.94
2023-01-31T16:12:49.486Z,89.08
2023-01-31T16:15:22.379Z,89.29
2023-01-31T16:17:50.273Z,89.72
2023-01-31T16:20:39.645Z,89.64
2023-01-31T16:23:24.569Z,89.69
2023-01-31T16:25:55.603Z,89.94
2023-01-31T16:28:23.113Z,90.14
2023-01-31T16:30:50.642Z,91.13
2023-01-31T16:33:19.609Z,90.99
2023-01-31T16:35:46.471Z,91.30
2023-01-31T16:38:24.822Z,90.92
2023-01-31T16:40:53.796Z,90.79
2023-01-31T16:43:23.430Z,90.65
2023-01-31T16:45:52.564Z,90.72
2023-01-31T16:48:25.921Z,89.60
2023-01-31T16:50:56.322Z,89.07
2023-01-31T16:53:34.404Z,88.23
2023-01-31T16:56:22.042Z,87.68
2023-01-31T16:58:59.058Z,88.31
2023-01-31T17:01:31.154Z,87.73
2023-01-31T17:04:06.454Z,87.30
2023-01-31T17:06:34.333Z,87.18
2023-01-31T17:09:07.199Z,86.77
2023-01-31T17:11:43.097Z,87.59
2023-01-31T17:14:14.576Z,86.62
2023-01-31T17:16:41.975Z,86.98
2023-01-31T17:19:08.972Z,86.40
2023-01-31T17:21:40.897Z,86.36
2023-01-31T17:24:13.549Z,86.51
2023-01-31T17:26:40.797Z,86.37
2023-01-31T17:29:09.221Z,86.11
2023-01-31T17:31:36.277Z,85.76
2023-01-31T17:34:03.095Z,85.02
2023-01-31T17:36:30.537Z,85.01
2023-01-31T17:38:57.602Z,85.54
2023-01-31T17:41:26.299Z,84.47
2023-01-31T17:43:53.106Z,84.93
2023-01-31T17:46:31.502Z,84.54
2023-01-31T17:48:59.544Z,85.33
2023-01-31T17:51:33.867Z,85.30
2023-01-31T17:54:00.853Z,85.57
2023-01-31T17:56:29.372Z,85.69
2023-01-31T17:58:56.457Z,86.30
2023-01-31T18:01:28.737Z,85.99
2023-01-31T18:03:55.692Z,86.30
2023-01-31T18:06:22.744Z,86.82
2023-01-31T18:08:52.265Z,86.94
2023-01-31T18:11:22.543Z,87.26
2023-01-31T18:13:52.120Z,87.42
2023-01-31T18:16:20.633Z,87.64
2023-01-31T18:18:52.210Z,87.62
2023-01-31T18:21:21.992Z,88.42
2023-01-31T18:23:55.477Z,88.75
2023-01-31T18:26:25.245Z,88.81
2023-01-31T18:28:53.957Z,88.60
2023-01-31T18:31:21.236Z,88.71
2023-01-31T18:33:48.470Z,88.50
2023-01-31T18:36:17.711Z,88.04
2023-01-31T18:38:46.361Z,87.55
2023-01-31T18:41:15.255Z,87.71
2023-01-31T18:43:43.267Z,87.44
2023-01-31T18:46:12.980Z,87.06
2023-01-31T18:48:40.818Z,87.20
2023-01-31T18:51:16.732Z,87.18
2023-01-31T18:53:47.194Z,87.08
2023-01-31T18:56:16.602Z,86.85
2023-01-31T18:58:46.707Z,87.04
2023-01-31T19:01:20.109Z,86.49
2023-01-31T19:03:50.867Z,86.19
2023-01-31T19:06:20.423Z,85.96
2023-01-31T19:08:48.453Z,86.66
2023-01-31T19:11:17.095Z,86.18
2023-01-31T19:13:44.738Z,86.52
2023-01-31T19:16:15.533Z,85.55
2023-01-31T19:18:42.683Z,85.77
2023-01-31T19:21:16.415Z,85.20
2023-01-31T19:23:45.083Z,85.29
2023-01-31T19:26:12.704Z,85.13
2023-01-31T19:28:40.387Z,85.51
2023-01-31T19:31:09.082Z,84.71
2023-01-31T19:33:37.942Z,84.44
2023-01-31T19:36:10.228Z,84.68
2023-01-31T19:38:37.694Z,84.34
2023-01-31T19:41:06.169Z,83.93
2023-01-31T19:43:33.588Z,83.78
2023-01-31T19:46:00.888Z,83.97
2023-01-31T19:48:28.101Z,83.58
2023-01-31T19:50:57.422Z,84.46
2023-01-31T19:53:25.166Z,83.63
2023-01-31T19:55:53.449Z,83.96
2023-01-31T19:58:21.175Z,84.69
2023-01-31T20:00:48.337Z,84.48
2023-01-31T20:06:18.342Z,84.19
2023-01-31T20:08:50.691Z,84.50
2023-01-31T20:11:18.005Z,84.75
2023-01-31T20:13:44.931Z,84.45
2023-01-31T20:16:31.299Z,84.18
2023-01-31T20:19:05.656Z,84.28
2023-01-31T20:21:34.531Z,84.78
2023-01-31T20:24:11.168Z,85.01
2023-01-31T20:26:38.609Z,85.43
2023-01-31T20:29:07.768Z,85.53
2023-01-31T20:31:39.971Z,85.73
2023-01-31T20:34:09.458Z,86.09
2023-01-31T20:36:40.700Z,86.00
2023-01-31T20:39:10.901Z,85.44
2023-01-31T20:41:40.890Z,85.87
2023-01-31T20:44:10.732Z,85.58
2023-01-31T20:46:40.437Z,85.50
2023-01-31T20:49:12.191Z,85.41
2023-01-31T20:51:44.295Z,86.18
2023-01-31T20:54:13.252Z,85.53
2023-01-31T20:56:44.407Z,85.86
2023-01-31T20:59:17.214Z,85.55
2023-01-31T21:01:44.284Z,85.53
2023-01-31T21:04:14.616Z,85.82
2023-01-31T21:06:43.398Z,86.08
2023-01-31T21:09:13.419Z,85.78
2023-01-31T21:11:43.625Z,85.85
2023-01-31T21:14:14.874Z,85.91
2023-01-31T21:16:45.436Z,86.16
2023-01-31T21:19:18.666Z,86.14
2023-01-31T21:21:48.320Z,85.96
2023-01-31T21:24:23.399Z,86.12
2023-01-31T21:27:10.001Z,85.55
2023-01-31T21:29:37.111Z,86.05
2023-01-31T21:32:07.578Z,85.63
2023-01-31T21:34:37.779Z,86.10
2023-01-31T21:37:06.755Z,86.06
2023-01-31T21:39:33.478Z,86.30
2023-01-31T21:42:01.398Z,85.54
2023-01-31T21:44:28.154Z,86.28
2023-01-31T21:46:55.122Z,85.90
2023-01-31T21:49:22.083Z,85.89
2023-01-31T21:51:49.106Z,85.75
2023-01-31T21:54:17.393Z,85.61
2023-01-31T21:56:44.592Z,85.75
2023-01-31T21:59:12.273Z,85.79
2023-01-31T22:01:39.367Z,84.97
2023-01-31T22:04:06.199Z,85.34
2023-01-31T22:06:36.029Z,85.11
2023-01-31T22:09:04.308Z,85.28
2023-01-31T22:11:32.785Z,85.01
2023-01-31T22:14:00.817Z,85.00
2023-01-31T22:16:28.072Z,85.41
2023-01-31T22:18:55.020Z,85.30
2023-01-31T22:21:24.703Z,85.38
2023-01-31T22:23:53.133Z,85.12
2023-01-31T22:26:21.990Z,85.23
2023-01-31T22:28:50.735Z,84.73
2023-01-31T22:31:18.518Z,85.39
2023-01-31T22:33:47.250Z,85.67
2023-01-31T22:36:15.255Z,85.54
2023-01-31T22:38:42.733Z,85.06
2023-01-31T22:41:12.258Z,85.49
2023-01-31T22:43:40.575Z,85.15
2023-01-31T22:46:12.423Z,85.03
2023-01-31T22:48:39.699Z,86.13
2023-01-31T22:51:11.954Z,85.30
2023-01-31T22:53:39.954Z,85.79
2023-01-31T22:56:08.823Z,85.47
2023-01-31T22:58:36.624Z,85.44
2023-01-31T23:01:16.876Z,84.72
2023-01-31T23:03:45.518Z,85.95
2023-01-31T23:06:13.385Z,85.59
2023-01-31T23:08:41.217Z,85.36
2023-01-31T23:11:10.268Z,85.50
2023-01-31T23:13:37.499Z,85.68
2023-01-31T23:16:06.231Z,85.61
2023-01-31T23:18:34.987Z,85.75
2023-01-31T23:21:08.683Z,85.69
2023-01-31T23:23:42.238Z,85.64
2023-01-31T23:26:09.615Z,85.60
2023-01-31T23:28:37.920Z,85.59
2023-01-31T23:31:05.648Z,85.60
2023-01-31T23:33:34.820Z,85.72
2023-01-31T23:36:01.699Z,85.77
2023-01-31T23:38:28.475Z,85.45
2023-01-31T23:40:55.381Z,85.61
2023-01-31T23:43:22.724Z,85.31
2023-01-31T23:45:49.666Z,84.99
2023-01-31T23:48:17.032Z,84.94
2023-01-31T23:50:45.293Z,84.72
2023-01-31T23:53:12.170Z,85.07
2023-01-31T23:55:38.962Z,84.81
2023-01-31T23:58:05.899Z,84.49
